Terminal Aerodrome Forecast
Issued by NWS

Home | Current Version | Previous Version | Text Only | Print | Product List | Glossary On
Versions: 1 2 3 4 5 6 7 8 9 10 11 12 13 14 15 16 17 18 19
000
FTPQ31 PGUM 202321
TAFKWA
TAF
PKWA 202321Z 2100/2124 12015G25KT P6SM VCSH SCT015 BKN040
      TEMPO 2100/2103 2SM +SHRA SCT009 OVC015
     FM210700 08013KT P6SM FEW015 SCT040 BKN120=

USA.gov is the U.S. government's official web portal to all federal, state and local government web resources and services.